Portada
METAR-TAF:

METAR-TAF

Aeropuertos :

Rarotonga, Islas Cook

Aeropuerto Internacional Rarotonga

latitud: 21-12S, longitud: 159-49W, altitud: 7 m

Observación

El informe se hizo hace 56 minutos, a las 01:00 UTC
Viento 4 kt del norte-noreste
Temperatura 26°C
Humedad 74%
Presión 1013 hPa
Visibilidad 10 km o más
Cielo nuboso a una altura de 1500 ft
chaparrones en las proximidades

METAR: NCRG 280100Z 03004KT 9999 VCSH BKN015 26/21 Q1013

Hora: 15:56 (01:56 UTC)

Pronóstico

El informe se hizo hace 2 horas y 27 minutos, a las 23:29 UTC
Pronóstico válido del 28 a las 00 UTC al 28 a las 24 UTC
Viento 5 kt del noreste
Visibilidad 10 km o más
Nubes dispersas a una altura de 1600 ft
Probabilidad 30% :
Temporalmente
del 28 a las 21 UTC al 28 a las 24 UTC
Visibilidad: 7000 m
Cielo nuboso a una altura de 1500 ft
chaparrones de lluvia

TAF: NCRG 272329Z 2800/2824 04005KT 9999 SCT016 PROB30 TEMPO 2821/2824 7000 SHRA BKN015

Observaciones y pronósticos meteorológicos de más de 4000 aeropuertos (mensajes METAR y TAF).

Los puntos amarillos y rojos representan las estaciones disponibles.

Ponga el ratón en el punto deseado para ver el nombre de la estación.

Haga clic para ver las observaciones y los pronósticos meteorológicos.

Para cambiar el mapa : haga clic en los botones verdes con una cruz de color negro para hacer un zoom, en el botón verde con un guión para alejar o en las flechas verdes para mapas adyacentes.


METAR-TAF: